createdAt,value
2023-01-09T00:01:14.866Z,80.19
2023-01-09T00:03:48.446Z,80.41
2023-01-09T00:06:19.782Z,80.75
2023-01-09T00:08:50.640Z,81.04
2023-01-09T00:11:21.985Z,81.18
2023-01-09T00:13:55.322Z,80.94
2023-01-09T00:16:25.857Z,81.02
2023-01-09T00:19:00.459Z,81.08
2023-01-09T00:21:33.378Z,80.80
2023-01-09T00:24:03.906Z,80.81
2023-01-09T00:26:35.806Z,80.86
2023-01-09T00:29:07.713Z,80.97
2023-01-09T00:31:38.375Z,81.12
2023-01-09T00:34:13.279Z,80.82
2023-01-09T00:36:44.022Z,81.04
2023-01-09T00:39:14.779Z,80.92
2023-01-09T00:41:50.036Z,81.08
2023-01-09T00:44:26.252Z,81.24
2023-01-09T00:46:59.860Z,80.99
2023-01-09T00:49:36.882Z,80.99
2023-01-09T00:52:10.233Z,80.97
2023-01-09T00:54:41.434Z,80.89
2023-01-09T00:57:15.968Z,80.57
2023-01-09T00:59:47.102Z,80.22
2023-01-09T01:02:23.775Z,80.18
2023-01-09T01:05:12.540Z,80.22
2023-01-09T01:07:50.575Z,80.12
2023-01-09T01:10:24.013Z,80.24
2023-01-09T01:12:55.428Z,80.16
2023-01-09T01:15:29.410Z,80.06
2023-01-09T01:18:00.039Z,80.32
2023-01-09T01:20:42.724Z,80.09
2023-01-09T01:23:13.774Z,80.06
2023-01-09T01:25:45.373Z,80.25
2023-01-09T01:28:15.916Z,80.16
2023-01-09T01:30:46.612Z,79.95
2023-01-09T01:33:17.337Z,80.08
2023-01-09T01:35:50.765Z,80.32
2023-01-09T01:38:21.171Z,80.32
2023-01-09T01:40:56.311Z,80.26
2023-01-09T01:43:27.346Z,80.42
2023-01-09T01:45:58.198Z,80.17
2023-01-09T01:48:32.531Z,80.35
2023-01-09T01:51:10.150Z,80.38
2023-01-09T01:53:44.375Z,80.40
2023-01-09T01:56:19.001Z,80.82
2023-01-09T01:58:54.827Z,80.83
2023-01-09T02:01:27.359Z,80.79
2023-01-09T02:04:00.172Z,80.99
2023-01-09T02:06:36.486Z,80.96
2023-01-09T02:09:15.435Z,80.97
2023-01-09T02:11:48.219Z,81.19
2023-01-09T02:14:19.444Z,81.33
2023-01-09T02:17:07.811Z,81.33
2023-01-09T02:20:11.231Z,81.35
2023-01-09T02:23:03.279Z,81.41
2023-01-09T02:26:03.268Z,81.51
2023-01-09T02:28:58.485Z,81.44
2023-01-09T02:31:40.556Z,81.57
2023-01-09T02:34:20.666Z,81.33
2023-01-09T02:36:59.021Z,81.37
2023-01-09T02:39:36.136Z,81.41
2023-01-09T02:42:12.430Z,81.51
2023-01-09T02:44:43.148Z,81.62
2023-01-09T02:47:47.673Z,81.73
2023-01-09T02:50:39.622Z,81.66
2023-01-09T02:53:50.421Z,82.03
2023-01-09T02:56:36.580Z,82.22
2023-01-09T02:59:22.509Z,82.21
2023-01-09T03:02:05.726Z,82.18
2023-01-09T03:04:50.887Z,82.20
2023-01-09T03:07:28.107Z,82.16
2023-01-09T03:10:04.753Z,82.43
2023-01-09T03:12:38.229Z,82.35
2023-01-09T03:15:14.151Z,82.33
2023-01-09T03:17:49.657Z,82.58
2023-01-09T03:20:27.852Z,82.65
2023-01-09T03:23:01.508Z,82.64
2023-01-09T03:25:33.850Z,82.72
2023-01-09T03:28:07.665Z,82.83
2023-01-09T03:30:39.783Z,83.02
2023-01-09T03:33:12.496Z,83.00
2023-01-09T03:35:45.595Z,83.11
2023-01-09T03:38:18.618Z,83.00
2023-01-09T03:40:49.370Z,82.92
2023-01-09T03:43:22.463Z,82.91
2023-01-09T03:45:53.317Z,82.86
2023-01-09T03:48:26.010Z,82.92
2023-01-09T03:50:59.457Z,82.57
2023-01-09T03:53:31.252Z,82.68
2023-01-09T03:56:02.433Z,83.10
2023-01-09T03:58:32.807Z,83.09
2023-01-09T04:01:05.288Z,83.29
2023-01-09T04:03:36.366Z,83.30
2023-01-09T04:06:10.784Z,83.48
2023-01-09T04:08:42.873Z,83.55
2023-01-09T04:11:13.551Z,83.17
2023-01-09T04:13:45.160Z,83.19
2023-01-09T04:16:15.694Z,83.21
2023-01-09T04:18:46.214Z,83.52
2023-01-09T04:21:19.308Z,83.71
2023-01-09T04:23:52.151Z,83.63
2023-01-09T04:26:22.735Z,83.32
2023-01-09T04:28:53.340Z,83.38
2023-01-09T04:31:25.474Z,83.54
2023-01-09T04:33:56.121Z,84.04
2023-01-09T04:36:29.201Z,84.06
2023-01-09T04:38:59.656Z,83.91
2023-01-09T04:41:42.785Z,83.97
2023-01-09T04:44:13.288Z,83.66
2023-01-09T04:46:43.869Z,83.91
2023-01-09T04:49:15.732Z,83.72
2023-01-09T04:51:48.925Z,83.91
2023-01-09T04:54:27.876Z,83.93
2023-01-09T04:56:58.609Z,83.87
2023-01-09T04:59:29.198Z,84.09
2023-01-09T05:02:01.397Z,84.10
2023-01-09T05:04:32.012Z,84.12
2023-01-09T05:07:07.920Z,84.07
2023-01-09T05:09:38.456Z,83.80
2023-01-09T05:12:09.690Z,83.77
2023-01-09T05:14:40.075Z,83.55
2023-01-09T05:17:11.393Z,83.84
2023-01-09T05:19:42.525Z,83.76
2023-01-09T05:22:15.619Z,83.69
2023-01-09T05:24:46.378Z,83.49
2023-01-09T05:27:16.752Z,83.53
2023-01-09T05:29:47.429Z,83.66
2023-01-09T05:32:17.861Z,83.43
2023-01-09T05:34:54.203Z,83.23
2023-01-09T05:37:27.179Z,83.09
2023-01-09T05:39:58.347Z,83.23
2023-01-09T05:42:29.412Z,83.03
2023-01-09T05:44:59.877Z,83.25
2023-01-09T05:47:30.841Z,83.07
2023-01-09T05:50:01.460Z,83.17
2023-01-09T05:52:36.748Z,83.02
2023-01-09T05:55:08.800Z,83.16
2023-01-09T05:57:41.726Z,83.37
2023-01-09T06:00:15.978Z,83.29
2023-01-09T06:02:46.401Z,83.71
2023-01-09T06:05:20.963Z,83.59
2023-01-09T06:07:54.212Z,83.33
2023-01-09T06:10:24.639Z,83.62
2023-01-09T06:12:55.999Z,83.24
2023-01-09T06:15:27.382Z,83.21
2023-01-09T06:17:58.181Z,83.29
2023-01-09T06:20:28.711Z,83.37
2023-01-09T06:23:04.308Z,83.28
2023-01-09T06:25:35.031Z,83.27
2023-01-09T06:28:05.579Z,83.40
2023-01-09T06:30:36.085Z,83.22
2023-01-09T06:33:06.718Z,83.03
2023-01-09T06:35:37.622Z,83.05
2023-01-09T06:38:11.273Z,83.27
2023-01-09T06:40:42.980Z,83.75
2023-01-09T06:43:14.444Z,84.05
2023-01-09T06:45:46.299Z,83.88
2023-01-09T06:48:18.148Z,83.61
2023-01-09T06:50:50.679Z,83.37
2023-01-09T06:53:31.367Z,83.64
2023-01-09T06:56:02.726Z,83.64
2023-01-09T06:58:33.772Z,83.79
2023-01-09T07:01:04.393Z,84.12
2023-01-09T07:03:35.035Z,84.32
2023-01-09T07:06:08.309Z,84.57
2023-01-09T07:08:41.413Z,84.61
2023-01-09T07:11:15.839Z,84.69
2023-01-09T07:13:48.786Z,84.78
2023-01-09T07:16:19.268Z,84.70
2023-01-09T07:18:49.663Z,84.70
2023-01-09T07:21:20.438Z,84.58
2023-01-09T07:23:54.158Z,84.89
2023-01-09T07:26:25.539Z,84.93
2023-01-09T07:28:55.895Z,84.83
2023-01-09T07:31:26.407Z,85.02
2023-01-09T07:33:56.912Z,84.88
2023-01-09T07:36:27.396Z,84.79
2023-01-09T07:39:00.463Z,84.86
2023-01-09T07:41:30.882Z,84.78
2023-01-09T07:44:01.375Z,84.92
2023-01-09T07:46:31.941Z,84.80
2023-01-09T07:49:02.428Z,84.44
2023-01-09T07:51:32.868Z,84.35
2023-01-09T07:54:06.019Z,84.30
2023-01-09T07:56:36.443Z,84.50
2023-01-09T07:59:07.051Z,84.29
2023-01-09T08:01:38.652Z,84.20
2023-01-09T08:04:10.023Z,84.17
2023-01-09T08:06:44.536Z,84.29
2023-01-09T08:09:24.680Z,84.15
2023-01-09T08:11:57.534Z,84.32
2023-01-09T08:14:28.120Z,84.52
2023-01-09T08:16:58.503Z,84.49
2023-01-09T08:19:30.434Z,84.38
2023-01-09T08:22:00.853Z,84.19
2023-01-09T08:24:33.823Z,83.76
2023-01-09T08:27:04.298Z,83.90
2023-01-09T08:29:38.537Z,83.80
2023-01-09T08:32:11.407Z,83.57
2023-01-09T08:34:41.758Z,83.41
2023-01-09T08:37:12.235Z,83.05
2023-01-09T08:39:45.816Z,83.13
2023-01-09T08:42:30.784Z,82.82
2023-01-09T08:45:13.695Z,82.76
2023-01-09T08:47:44.591Z,82.74
2023-01-09T08:50:18.378Z,82.81
2023-01-09T08:52:49.029Z,82.52
2023-01-09T08:55:36.835Z,82.24
2023-01-09T08:58:07.544Z,82.26
2023-01-09T09:00:40.319Z,81.88
2023-01-09T09:03:12.057Z,81.86
2023-01-09T09:05:42.557Z,81.81
2023-01-09T09:08:13.139Z,81.74
2023-01-09T09:10:48.232Z,81.71
2023-01-09T09:13:18.684Z,81.63
2023-01-09T09:15:49.098Z,81.76
2023-01-09T09:18:20.603Z,81.34
2023-01-09T09:20:51.031Z,81.30
2023-01-09T09:23:22.762Z,80.82
2023-01-09T09:25:56.159Z,80.31
2023-01-09T09:28:26.593Z,80.36
2023-01-09T09:30:57.225Z,80.03
2023-01-09T09:33:27.958Z,79.82
2023-01-09T09:35:58.427Z,79.34
2023-01-09T09:38:29.053Z,79.05
2023-01-09T09:41:35.134Z,79.00
2023-01-09T09:44:36.361Z,79.23
2023-01-09T09:47:14.858Z,79.34
2023-01-09T09:49:54.365Z,79.43
2023-01-09T09:52:38.842Z,79.23
2023-01-09T09:55:22.040Z,78.97
2023-01-09T09:58:05.198Z,78.87
2023-01-09T10:00:38.268Z,78.87
2023-01-09T10:03:18.401Z,78.96
2023-01-09T10:05:53.893Z,79.01
2023-01-09T10:08:33.071Z,79.02
2023-01-09T10:11:04.209Z,79.10
2023-01-09T10:13:49.657Z,79.11
2023-01-09T10:16:31.961Z,78.69
2023-01-09T10:19:16.241Z,79.10
2023-01-09T10:21:55.356Z,79.29
2023-01-09T10:24:42.930Z,79.18
2023-01-09T10:27:27.510Z,78.77
2023-01-09T10:30:14.733Z,78.43
2023-01-09T10:33:17.313Z,78.73
2023-01-09T10:36:35.480Z,78.58
2023-01-09T10:39:12.170Z,79.06
2023-01-09T10:41:51.336Z,79.45
2023-01-09T10:44:29.597Z,79.79
2023-01-09T10:47:04.988Z,79.67
2023-01-09T10:49:35.388Z,79.54
2023-01-09T10:52:16.772Z,79.54
2023-01-09T10:54:55.035Z,79.44
2023-01-09T10:57:43.141Z,79.08
2023-01-09T11:00:23.215Z,79.20
2023-01-09T11:02:58.379Z,79.52
2023-01-09T11:05:32.926Z,79.85
2023-01-09T11:08:16.537Z,79.69
2023-01-09T11:10:51.164Z,79.51
2023-01-09T11:13:24.580Z,79.08
2023-01-09T11:16:09.313Z,78.55
2023-01-09T11:18:52.795Z,78.73
2023-01-09T11:21:36.032Z,78.59
2023-01-09T11:24:36.374Z,78.62
2023-01-09T11:27:24.209Z,78.47
2023-01-09T11:30:22.596Z,78.40
2023-01-09T11:32:53.018Z,78.39
2023-01-09T11:35:34.083Z,78.53
2023-01-09T11:38:17.358Z,78.45
2023-01-09T11:40:51.868Z,78.42
2023-01-09T11:43:37.827Z,78.29
2023-01-09T11:46:13.232Z,77.91
2023-01-09T11:48:57.348Z,78.21
2023-01-09T11:51:32.369Z,78.32
2023-01-09T11:54:20.281Z,78.33
2023-01-09T11:56:52.708Z,77.84
2023-01-09T11:59:25.663Z,77.41
2023-01-09T12:02:26.022Z,77.18
2023-01-09T12:05:09.630Z,77.72
2023-01-09T12:08:00.120Z,77.62
2023-01-09T12:10:55.242Z,77.95
2023-01-09T12:13:50.160Z,77.74
2023-01-09T12:16:34.080Z,77.68
2023-01-09T12:19:23.099Z,77.82
2023-01-09T12:22:05.035Z,78.15
2023-01-09T12:25:09.735Z,77.99
2023-01-09T12:27:59.495Z,77.82
2023-01-09T12:30:44.185Z,77.89
2023-01-09T12:33:31.272Z,78.13
2023-01-09T12:36:33.548Z,78.25
2023-01-09T12:39:16.937Z,78.01
2023-01-09T12:42:13.797Z,78.11
2023-01-09T12:44:54.075Z,77.81
2023-01-09T12:47:52.672Z,77.63
2023-01-09T12:50:43.527Z,77.54
2023-01-09T12:53:22.543Z,77.20
2023-01-09T12:55:58.765Z,77.33
2023-01-09T12:58:41.841Z,76.93
2023-01-09T13:01:18.120Z,77.25
2023-01-09T13:03:56.001Z,77.12
2023-01-09T13:06:29.606Z,76.82
2023-01-09T13:09:10.763Z,76.37
2023-01-09T13:11:47.417Z,76.60
2023-01-09T13:14:27.446Z,76.31
2023-01-09T13:17:00.704Z,76.04
2023-01-09T13:19:36.961Z,76.01
2023-01-09T13:22:12.034Z,75.85
2023-01-09T13:25:05.280Z,75.82
2023-01-09T13:27:40.336Z,76.33
2023-01-09T13:30:41.371Z,75.91
2023-01-09T13:33:22.780Z,75.88
2023-01-09T13:35:55.737Z,76.03
2023-01-09T13:38:29.570Z,76.30
2023-01-09T13:41:32.597Z,76.38
2023-01-09T13:44:05.584Z,76.21
2023-01-09T13:46:44.103Z,76.51
2023-01-09T13:49:33.412Z,76.62
2023-01-09T13:52:08.299Z,76.30
2023-01-09T13:55:04.245Z,76.32
2023-01-09T13:57:37.382Z,76.50
2023-01-09T14:00:44.071Z,76.55
2023-01-09T14:03:26.020Z,76.72
2023-01-09T14:06:24.296Z,76.53
2023-01-09T14:09:15.728Z,76.50
2023-01-09T14:11:48.699Z,76.85
2023-01-09T14:14:33.264Z,76.50
2023-01-09T14:17:05.627Z,76.44
2023-01-09T14:19:42.744Z,76.76
2023-01-09T14:22:29.274Z,76.49
2023-01-09T14:25:05.137Z,76.79
2023-01-09T14:28:11.635Z,76.93
2023-01-09T14:31:09.593Z,77.00
2023-01-09T14:33:43.696Z,77.34
2023-01-09T14:36:29.338Z,77.71
2023-01-09T14:39:13.006Z,77.88
2023-01-09T14:42:12.294Z,78.10
2023-01-09T14:44:55.456Z,78.00
2023-01-09T14:47:55.263Z,78.23
2023-01-09T14:50:34.983Z,78.05
2023-01-09T14:53:14.030Z,77.91
2023-01-09T14:55:54.076Z,77.86
2023-01-09T14:58:26.835Z,78.01
2023-01-09T15:01:05.172Z,77.67
2023-01-09T15:03:40.795Z,77.47
2023-01-09T15:06:20.337Z,77.30
2023-01-09T15:08:59.107Z,76.99
2023-01-09T15:11:32.048Z,77.08
2023-01-09T15:14:05.211Z,77.21
2023-01-09T15:16:36.346Z,77.12
2023-01-09T15:19:10.542Z,77.33
2023-01-09T15:21:43.653Z,77.21
2023-01-09T15:24:27.184Z,77.50
2023-01-09T15:26:59.935Z,77.57
2023-01-09T15:29:31.576Z,77.72
2023-01-09T15:32:08.037Z,77.72
2023-01-09T15:34:39.639Z,77.44
2023-01-09T15:37:27.542Z,77.42
2023-01-09T15:40:05.631Z,77.59
2023-01-09T15:42:52.147Z,77.80
2023-01-09T15:45:29.179Z,78.04
2023-01-09T15:48:20.885Z,78.21
2023-01-09T15:50:54.408Z,78.15
2023-01-09T15:53:27.117Z,78.60
2023-01-09T15:56:30.509Z,79.19
2023-01-09T15:59:01.909Z,79.64
2023-01-09T16:01:33.852Z,79.91
2023-01-09T16:04:17.052Z,80.26
2023-01-09T16:06:50.683Z,80.28
2023-01-09T16:09:29.248Z,80.15
2023-01-09T16:12:06.682Z,80.24
2023-01-09T16:14:39.877Z,80.45
2023-01-09T16:17:18.386Z,80.15
2023-01-09T16:19:51.128Z,80.02
2023-01-09T16:22:24.580Z,80.18
2023-01-09T16:25:00.436Z,80.05
2023-01-09T16:27:34.548Z,79.92
2023-01-09T16:30:09.424Z,79.79
2023-01-09T16:32:51.941Z,79.95
2023-01-09T16:35:26.364Z,79.92
2023-01-09T16:37:56.926Z,79.96
2023-01-09T16:40:29.978Z,80.19
2023-01-09T16:43:01.742Z,80.23
2023-01-09T16:45:35.857Z,80.26
2023-01-09T16:48:12.826Z,80.22
2023-01-09T16:50:44.242Z,80.07
2023-01-09T16:53:18.678Z,80.18
2023-01-09T16:55:52.208Z,80.02
2023-01-09T16:58:28.817Z,79.81
2023-01-09T17:00:59.470Z,79.95
2023-01-09T17:03:30.947Z,79.59
2023-01-09T17:06:04.209Z,79.77
2023-01-09T17:08:37.074Z,79.59
2023-01-09T17:11:07.996Z,79.71
2023-01-09T17:13:41.083Z,79.46
2023-01-09T17:16:13.770Z,79.35
2023-01-09T17:18:44.289Z,79.67
2023-01-09T17:21:29.068Z,79.46
2023-01-09T17:24:12.476Z,79.65
2023-01-09T17:27:01.048Z,79.61
2023-01-09T17:29:37.328Z,79.74
2023-01-09T17:32:08.443Z,79.90
2023-01-09T17:34:40.919Z,79.81
2023-01-09T17:37:16.087Z,79.91
2023-01-09T17:39:46.835Z,80.21
2023-01-09T17:42:17.284Z,80.28
2023-01-09T17:44:50.217Z,80.40
2023-01-09T17:47:20.697Z,80.59
2023-01-09T17:49:51.468Z,80.76
2023-01-09T17:52:22.137Z,80.68
2023-01-09T17:54:53.001Z,80.66
2023-01-09T17:57:23.687Z,80.89
2023-01-09T17:59:56.848Z,80.91
2023-01-09T18:02:27.341Z,80.95
2023-01-09T18:04:57.725Z,80.95
2023-01-09T18:07:28.208Z,80.91
2023-01-09T18:09:58.663Z,80.98
2023-01-09T18:12:29.252Z,81.17
2023-01-09T18:15:02.809Z,81.12
2023-01-09T18:17:33.330Z,80.79
2023-01-09T18:20:04.049Z,81.00
2023-01-09T18:22:35.185Z,80.96
2023-01-09T18:25:06.258Z,80.99
2023-01-09T18:27:41.162Z,80.94
2023-01-09T18:30:15.392Z,81.11
2023-01-09T18:32:45.924Z,81.11
2023-01-09T18:35:19.849Z,81.39
2023-01-09T18:37:50.861Z,81.74
2023-01-09T18:40:22.405Z,81.86
2023-01-09T18:42:53.033Z,81.97
2023-01-09T18:45:26.795Z,82.01
2023-01-09T18:47:58.089Z,82.14
2023-01-09T18:50:28.645Z,82.15
2023-01-09T18:52:59.801Z,82.10
2023-01-09T18:55:30.208Z,82.03
2023-01-09T18:58:00.953Z,82.21
2023-01-09T19:00:34.244Z,82.14
2023-01-09T19:03:07.273Z,82.22
2023-01-09T19:05:37.811Z,82.19
2023-01-09T19:08:09.096Z,82.33
2023-01-09T19:10:39.835Z,82.54
2023-01-09T19:13:10.262Z,82.50
2023-01-09T19:15:45.496Z,82.34
2023-01-09T19:18:17.564Z,82.69
2023-01-09T19:20:47.969Z,82.58
2023-01-09T19:23:21.589Z,82.36
2023-01-09T19:25:53.888Z,82.60
2023-01-09T19:28:24.376Z,82.38
2023-01-09T19:31:00.351Z,82.51
2023-01-09T19:33:30.826Z,82.41
2023-01-09T19:36:01.280Z,82.66
2023-01-09T19:38:32.121Z,82.58
2023-01-09T19:41:13.510Z,82.46
2023-01-09T19:43:44.247Z,82.29
2023-01-09T19:46:19.928Z,82.25
2023-01-09T19:48:51.663Z,82.19
2023-01-09T19:51:25.581Z,82.53
2023-01-09T19:56:30.390Z,82.41
2023-01-09T19:59:02.964Z,82.51
2023-01-09T20:01:38.906Z,82.28
2023-01-09T20:04:14.033Z,82.30
2023-01-09T20:06:46.703Z,82.49
2023-01-09T20:09:21.748Z,82.11
2023-01-09T20:11:58.522Z,82.11
2023-01-09T20:14:29.941Z,81.97
2023-01-09T20:17:04.468Z,82.03
2023-01-09T20:19:35.887Z,81.86
2023-01-09T20:22:07.677Z,81.86
2023-01-09T20:24:40.292Z,81.87
2023-01-09T20:27:11.818Z,81.84
2023-01-09T20:29:42.398Z,81.67
2023-01-09T20:32:15.520Z,81.72
2023-01-09T20:34:49.240Z,81.83
2023-01-09T20:37:20.341Z,81.60
2023-01-09T20:39:52.993Z,81.39
2023-01-09T20:42:23.480Z,81.32
2023-01-09T20:44:55.768Z,81.22
2023-01-09T20:47:29.133Z,81.52
2023-01-09T20:49:59.673Z,81.45
2023-01-09T20:52:30.231Z,81.44
2023-01-09T20:55:00.966Z,81.29
2023-01-09T20:57:31.956Z,81.33
2023-01-09T21:00:02.611Z,81.59
2023-01-09T21:02:35.927Z,81.54
2023-01-09T21:05:07.041Z,81.43
2023-01-09T21:07:37.466Z,81.46
2023-01-09T21:10:12.084Z,81.53
2023-01-09T21:12:42.721Z,81.33
2023-01-09T21:15:16.734Z,81.42
2023-01-09T21:17:52.380Z,81.31
2023-01-09T21:20:23.057Z,81.27
2023-01-09T21:22:54.058Z,81.41
2023-01-09T21:25:24.922Z,81.38
2023-01-09T21:27:55.501Z,81.40
2023-01-09T21:30:26.055Z,81.44
2023-01-09T21:32:59.108Z,81.44
2023-01-09T21:35:29.643Z,81.20
2023-01-09T21:38:01.197Z,81.50
2023-01-09T21:40:31.982Z,81.29
2023-01-09T21:43:15.214Z,81.49
2023-01-09T21:45:58.457Z,81.32
2023-01-09T21:48:31.889Z,81.36
2023-01-09T21:51:05.154Z,81.26
2023-01-09T21:53:35.634Z,81.32
2023-01-09T21:56:06.781Z,81.42
2023-01-09T21:58:37.220Z,81.49
2023-01-09T22:01:08.180Z,81.32
2023-01-09T22:03:41.594Z,81.51
2023-01-09T22:06:12.307Z,81.56
2023-01-09T22:08:42.757Z,81.33
2023-01-09T22:11:16.014Z,81.32
2023-01-09T22:13:49.975Z,81.71
2023-01-09T22:16:24.700Z,81.52
2023-01-09T22:18:58.385Z,81.65
2023-01-09T22:21:28.840Z,81.32
2023-01-09T22:24:01.571Z,81.23
2023-01-09T22:26:32.853Z,81.33
2023-01-09T22:29:03.507Z,81.42
2023-01-09T22:31:35.033Z,81.45
2023-01-09T22:34:09.061Z,81.37
2023-01-09T22:36:39.702Z,81.48
2023-01-09T22:39:10.123Z,81.76
2023-01-09T22:41:40.609Z,81.90
2023-01-09T22:44:13.334Z,82.22
2023-01-09T22:46:43.780Z,82.23
2023-01-09T22:49:17.061Z,82.26
2023-01-09T22:51:47.687Z,82.13
2023-01-09T22:54:18.362Z,82.36
2023-01-09T22:56:48.935Z,82.18
2023-01-09T22:59:19.499Z,82.11
2023-01-09T23:01:50.241Z,82.02
2023-01-09T23:04:23.629Z,81.93
2023-01-09T23:06:55.035Z,81.91
2023-01-09T23:09:26.712Z,81.87
2023-01-09T23:12:06.786Z,81.93
2023-01-09T23:14:39.723Z,81.71
2023-01-09T23:17:12.972Z,81.60
2023-01-09T23:19:46.177Z,81.73
2023-01-09T23:22:16.567Z,82.07
2023-01-09T23:24:48.006Z,82.49
2023-01-09T23:27:21.088Z,82.46
2023-01-09T23:29:51.688Z,82.42
2023-01-09T23:32:23.145Z,82.06
2023-01-09T23:34:56.294Z,81.68
2023-01-09T23:37:30.239Z,81.75
2023-01-09T23:40:01.074Z,81.86
2023-01-09T23:42:44.216Z,81.91
2023-01-09T23:45:14.854Z,81.58
2023-01-09T23:47:45.554Z,81.65
2023-01-09T23:50:19.122Z,81.42
2023-01-09T23:52:49.578Z,81.63
2023-01-09T23:55:21.031Z,81.48
2023-01-09T23:57:54.436Z,81.27
